Latest Weather Observations for Badgerys Creek

IDN60901

Issued at 1:01 pm EDT Friday 27 March 2015 (issued every 10 minutes, with the page automatically refreshed every 10 minutes)

About weather observations | Map of Sydney area stations | Latest observations for Sydney area | Other Formats
Station Details ID: 067108 Name: BADGERYS CREEK AWS Lat: -33.90 Lon: 150.73 Height: 81.2 m
Data from the previous 72 hours. | See also: Recent months at Badgerys Creek
Date/Time
EDT
Tmp

°C
App
Tmp
°C
Dew
Point
°C
Rel
Hum
%
Delta-T

°C
Wind Press
QNH
hPa
Press
MSL
hPa
Rain
since
9 am
mm
Dir
 
Spd
km/h
Gust
km/h
Spd
kts
Gust
kts
27/01:00pm 23.6 18.1 4.0 28 9.6 SW 22 32 12 17 1018.9 1018.6 0.0
27/12:30pm 23.0 18.0 3.5 28 9.5 WSW 19 32 10 17 1019.5 1019.2 0.0
27/12:00pm 22.6 17.6 3.7 29 9.2 W 19 33 10 18 1019.9 1019.6 0.0
27/11:30am 21.1 16.5 3.8 32 8.3 W 17 35 9 19 1020.2 1019.9 0.0
27/11:00am 20.4 15.2 3.6 33 8.0 W 20 32 11 17 1020.5 1020.2 0.0
27/10:30am 19.6 14.4 3.7 35 7.6 WSW 20 33 11 18 1020.6 1020.3 0.0
27/10:00am 18.4 15.1 4.6 40 6.6 W 11 15 6 8 1020.8 1020.5 0.0
27/09:30am 17.1 14.1 4.1 42 6.1 WNW 9 13 5 7 1020.7 1020.4 0.0
27/09:00am 15.4 13.1 5.9 53 4.6 N 7 9 4 5 1020.8 1020.5 0.0
27/08:30am 14.0 11.8 5.4 56 4.1 N 6 7 3 4 1020.9 1020.6 0.0
27/08:00am 10.4 8.0 4.5 67 2.6 NE 6 6 3 3 1020.8 1020.5 0.0
27/07:30am 8.5 6.6 3.1 69 2.3 WSW 2 4 1 2 1020.5 1020.2 0.0
27/07:00am 8.7 6.3 2.3 64 2.7 WSW 4 6 2 3 1020.4 1020.1 0.0
27/06:30am 12.2 9.7 1.8 49 4.5 W 4 7 2 4 1020.0 1019.7 0.0
27/06:00am 11.1 8.7 2.2 54 3.8 WNW 4 6 2 3 1019.9 1019.6 0.0
27/05:30am 11.8 9.3 1.7 50 4.3 WNW 4 6 2 3 1019.7 1019.4 0.0
27/05:00am 11.9 9.9 2.1 51 4.2 W 2 4 1 2 1019.8 1019.5 0.0
27/04:30am 10.3 7.5 2.9 60 3.2 WSW 7 9 4 5 1019.7 1019.4 0.0
27/04:00am 11.9 8.6 2.4 52 4.1 WSW 9 11 5 6 1019.8 1019.5 0.0
27/03:30am 11.7 8.0 2.5 53 4.0 WSW 11 20 6 11 1020.0 1019.7 0.0
27/03:00am 14.5 11.2 0.4 38 6.0 W 7 15 4 8 1020.1 1019.8 0.0
27/02:30am 14.5 11.2 0.4 38 6.0 W 7 11 4 6 1020.3 1020.0 0.0
27/02:00am 14.4 10.9 1.0 40 5.8 WSW 9 11 5 6 1020.6 1020.3 0.0
27/01:30am 14.1 11.1 1.1 41 5.6 W 6 11 3 6 1020.6 1020.3 0.0
27/01:00am 14.4 10.9 1.0 40 5.8 SW 9 15 5 8 1020.9 1020.6 0.0
27/12:30am 15.2 11.3 1.4 39 6.0 SW 11 19 6 10 1020.8 1020.5 0.0
27/12:00am 14.7 10.8 3.2 46 5.2 WSW 13 19 7 10 1020.6 1020.3 0.0
 
Date/Time
EDT
Tmp

°C
App
Tmp
°C
Dew
Point
°C
Rel
Hum
%
Delta-T

°C
Wind Press
QNH
hPa
Press
MSL
hPa
Rain
since
9 am
mm
Dir
 
Spd
km/h
Gust
km/h
Spd
kts
Gust
kts
26/11:30pm 14.6 11.1 3.4 47 5.1 SW 11 13 6 7 1020.5 1020.2 0.0
26/11:00pm 16.7 12.6 2.3 38 6.5 WSW 13 17 7 9 1020.3 1020.0 0.0
26/10:30pm 18.7 13.8 2.1 33 7.6 W 17 24 9 13 1020.1 1019.8 0.0
26/10:00pm 18.7 14.3 4.5 39 6.8 WSW 17 24 9 13 1020.0 1019.7 0.0
26/09:30pm 19.2 14.5 6.0 42 6.6 WSW 20 26 11 14 1019.3 1019.0 0.0
26/09:00pm 19.5 15.0 6.3 42 6.6 WSW 19 24 10 13 1018.8 1018.5 0.0
26/08:30pm 20.3 15.7 6.3 40 7.0 WSW 20 26 11 14 1018.3 1018.0 0.0
26/08:00pm 20.4 16.3 6.4 40 7.0 WSW 17 20 9 11 1017.6 1017.3 0.0
26/07:30pm 20.3 17.4 6.6 41 6.9 WSW 11 15 6 8 1016.9 1016.7 0.0
26/07:00pm 22.0 19.0 5.8 35 8.2 WSW 11 13 6 7 1016.5 1016.3 0.0
26/06:30pm 24.3 20.7 5.1 29 9.7 W 13 19 7 10 1016.1 1015.9 0.0
26/06:00pm 25.6 21.2 4.7 26 10.6 WNW 17 22 9 12 1015.7 1015.5 0.0
26/05:30pm 26.4 21.2 3.6 23 11.4 W 20 28 11 15 1015.4 1015.1 0.0
26/05:00pm 25.6 21.4 5.8 28 10.2 WSW 17 22 9 12 1015.1 1014.8 0.0
26/04:30pm 25.9 21.4 6.0 28 10.3 WSW 19 28 10 15 1015.0 1014.7 0.0
26/04:00pm 27.2 21.9 3.0 21 12.0 W 20 32 11 17 1014.9 1014.6 0.0
26/03:30pm 27.4 25.6 7.3 28 10.8 N 6 17 3 9 1014.9 1014.6 0.0
26/03:00pm 26.8 23.7 5.7 26 10.9 W 11 22 6 12 1015.1 1014.8 0.0
26/02:30pm 26.2 23.8 6.8 29 10.2 WSW 9 20 5 11 1015.3 1015.0 0.0
26/02:00pm 26.6 24.3 9.0 33 9.6 NNE 11 22 6 12 1015.6 1015.3 0.0
26/01:30pm 25.4 22.9 8.0 33 9.3 WNW 11 22 6 12 1016.2 1016.0 0.0
26/01:00pm 25.0 22.0 7.6 33 9.2 W 13 17 7 9 1016.5 1016.3 0.0
26/12:30pm 24.6 20.9 6.4 31 9.4 WNW 15 26 8 14 1016.8 1016.6 0.0
26/12:00pm 24.4 21.4 7.5 34 8.9 W 13 17 7 9 1017.2 1017.0 0.0
26/11:30am 23.2 21.9 9.9 43 7.3 WSW 7 15 4 8 1017.6 1017.3 0.0
26/11:00am 22.7 21.3 9.5 43 7.1 WSW 7 13 4 7 1017.9 1017.6 0.0
26/10:30am 21.8 20.1 11.2 51 5.9 SW 11 17 6 9 1018.2 1017.9 0.0
26/10:00am 20.6 19.4 12.8 61 4.4 SW 11 15 6 8 1018.3 1018.0 0.0
26/09:30am 19.2 18.8 14.2 73 2.9 SW 9 13 5 7 1018.4 1018.1 0.0
26/09:00am 17.9 18.4 15.0 83 1.7 SW 6 7 3 4 1018.3 1018.0 0.0
26/08:30am 16.2 17.3 15.6 96 0.4 SW 4 6 2 3 1018.3 1018.0 0.0
26/08:00am 14.5 14.8 14.5 100 0.0 S 6 7 3 4 1018.0 1017.7 0.0
26/07:30am 13.7 13.7 13.7 100 0.0 S 6 6 3 3 1017.8 1017.5 0.0
26/07:00am 13.8 14.9 13.6 99 0.1 CALM 0 0 0 0 1017.5 1017.2 0.0
26/06:30am 14.0 15.2 13.7 98 0.2 CALM 0 0 0 0 1017.2 1017.0 0.0
26/06:00am 14.8 15.1 14.5 98 0.2 S 6 6 3 3 1017.0 1016.8 0.0
26/05:30am 14.8 15.4 14.3 97 0.3 S 4 7 2 4 1016.9 1016.7 0.0
26/05:00am 15.4 16.6 14.8 96 0.3 SE 2 6 1 3 1016.7 1016.5 0.0
26/04:30am 15.4 16.8 14.3 93 0.6 CALM 0 0 0 0 1016.9 1016.7 0.0
26/04:00am 15.6 17.1 14.6 94 0.6 CALM 0 0 0 0 1016.9 1016.7 0.0
26/03:30am 15.8 16.9 14.5 92 0.7 SSE 2 2 1 1 1017.0 1016.8 0.0
26/03:00am 15.5 16.2 14.4 93 0.6 SSE 4 4 2 2 1017.2 1017.0 0.0
26/02:30am 15.8 16.6 14.7 93 0.6 SSE 4 4 2 2 1017.6 1017.3 0.0
26/02:00am 16.3 17.9 14.8 91 0.9 CALM 0 0 0 0 1017.7 1017.4 0.0
26/01:30am 17.0 18.6 15.0 88 1.2 CALM 0 0 0 0 1017.7 1017.4 0.0
26/01:00am 17.1 18.8 15.1 88 1.2 CALM 0 0 0 0 1017.7 1017.4 0.0
26/12:30am 17.4 19.1 15.2 87 1.3 CALM 0 0 0 0 1018.1 1017.8 0.0
26/12:00am 17.3 18.5 14.9 86 1.4 SSE 2 4 1 2 1018.4 1018.1 0.0
 
Date/Time
EDT
Tmp

°C
App
Tmp
°C
Dew
Point
°C
Rel
Hum
%
Delta-T

°C
Wind Press
QNH
hPa
Press
MSL
hPa
Rain
since
9 am
mm
Dir
 
Spd
km/h
Gust
km/h
Spd
kts
Gust
kts
25/11:30pm 17.0 18.6 14.8 87 1.3 CALM 0 0 0 0 1018.6 1018.3 0.0
25/11:00pm 16.9 18.3 14.5 86 1.4 CALM 0 0 0 0 1018.5 1018.2 0.0
25/10:30pm 16.9 18.3 14.4 85 1.4 CALM 0 0 0 0 1018.6 1018.3 0.0
25/10:00pm 17.4 18.9 14.7 84 1.6 CALM 0 0 0 0 1018.8 1018.5 0.0
25/09:30pm 17.3 18.8 14.6 84 1.6 CALM 0 2 0 1 1018.5 1018.2 0.0
25/09:00pm 17.1 17.6 14.0 82 1.8 SSE 4 6 2 3 1018.6 1018.3 0.0
25/08:30pm 17.4 18.4 13.3 77 2.3 CALM 0 0 0 0 1018.1 1017.8 0.0
25/08:00pm 18.1 18.6 12.8 71 3.0 E 2 4 1 2 1017.8 1017.5 0.0
25/07:30pm 18.7 18.5 12.9 69 3.3 ESE 6 7 3 4 1017.5 1017.2 0.0
25/07:00pm 19.4 19.0 12.9 66 3.7 ESE 7 11 4 6 1017.2 1017.0 0.0
25/06:30pm 20.1 19.4 13.3 65 3.9 E 9 15 5 8 1016.9 1016.7 0.0
25/06:00pm 20.9 19.5 13.4 62 4.3 ESE 13 20 7 11 1016.7 1016.5 0.0
25/05:30pm 21.7 19.7 13.9 61 4.5 E 17 22 9 12 1016.5 1016.3 0.0
25/05:00pm 22.5 20.3 14.4 60 4.8 E 19 24 10 13 1016.4 1016.2 0.0
25/04:30pm 22.5 20.9 13.8 58 5.1 E 15 22 8 12 1016.3 1016.1 0.0
25/04:00pm 22.4 21.2 14.0 59 4.9 E 13 19 7 10 1016.3 1016.1 0.0
25/03:30pm 23.1 22.0 14.4 58 5.1 ESE 13 20 7 11 1016.3 1016.1 0.0
25/03:00pm 23.1 22.0 13.0 53 5.8 ESE 11 17 6 9 1016.1 1015.9 0.0
25/02:30pm 22.9 21.6 12.5 52 5.9 ESE 11 19 6 10 1016.4 1016.2 0.0
25/02:00pm 23.3 22.7 14.6 58 5.2 E 11 17 6 9 1016.6 1016.4 0.0
25/01:30pm 23.0 22.5 13.8 56 5.4 ESE 9 15 5 8 1016.9 1016.7 0.0
25/01:00pm 22.4 21.2 12.9 55 5.4 E 11 17 6 9 1017.3 1017.1 0.0
25/12:30pm 21.6 21.7 13.8 61 4.5 ENE 6 9 3 5 1017.8 1017.5 0.0
25/12:00pm 21.5 21.7 14.2 63 4.3 S 6 9 3 5 1018.0 1017.7 0.0
25/11:30am 21.3 21.3 15.2 68 3.6 ESE 9 17 5 9 1017.9 1017.6 0.0
25/11:00am 20.1 19.0 13.1 64 4.0 S 11 17 6 9 1018.0 1017.7 0.0
25/10:30am 19.1 17.8 12.4 65 3.8 S 11 17 6 9 1018.0 1017.7 0.0
25/10:00am 18.9 17.3 12.9 68 3.4 SW 13 20 7 11 1018.1 1017.8 0.0
25/09:30am 18.4 17.4 13.3 72 2.9 SSW 11 17 6 9 1017.8 1017.5 0.0
25/09:00am 17.3 15.8 13.0 76 2.4 SW 13 17 7 9 1017.6 1017.3 10.8
25/08:30am 16.0 14.8 12.7 81 1.8 SW 11 15 6 8 1017.0 1016.8 10.8
25/08:00am 14.3 12.9 12.3 88 1.1 WSW 11 13 6 7 1016.7 1016.5 10.8
25/07:30am 13.3 12.1 11.5 89 1.0 WSW 9 13 5 7 1016.3 1016.1 10.8
25/07:00am 12.6 10.9 11.2 91 0.7 WSW 11 11 6 6 1015.7 1015.5 10.8
25/06:30am 13.0 10.9 11.1 88 1.0 WSW 13 13 7 7 1015.3 1015.0 10.8
25/06:00am 13.2 11.1 11.3 88 1.0 WSW 13 15 7 8 1015.0 1014.7 10.8
25/05:30am 13.4 11.7 11.1 86 1.2 WSW 11 13 6 7 1014.9 1014.6 10.8
25/05:00am 13.6 11.9 11.1 85 1.3 WSW 11 15 6 8 1014.6 1014.3 10.8
25/04:30am 12.3 10.6 11.2 93 0.6 SW 11 13 6 7 1014.4 1014.1 10.8
25/04:00am 12.6 11.9 11.3 92 0.7 SSW 6 6 3 3 1014.6 1014.3 10.8
25/03:30am 12.6 11.7 10.7 88 1.0 SW 6 7 3 4 1014.5 1014.2 10.8
25/03:00am 12.9 11.9 11.0 88 1.0 SSW 7 9 4 5 1014.2 1013.9 10.8
25/02:30am 14.3 13.9 11.1 81 1.7 S 4 6 2 3 1014.2 1013.9 10.8
25/02:00am 15.1 14.2 10.7 75 2.3 SW 6 7 3 4 1014.2 1013.9 10.8
25/01:30am 15.5 14.5 10.9 74 2.5 SW 7 11 4 6 1013.7 1013.4 10.8
25/01:00am 16.5 14.0 11.0 70 3.0 WSW 15 20 8 11 1013.4 1013.1 10.8
25/12:30am 16.3 15.0 11.2 72 2.8 SW 9 11 5 6 1013.3 1013.0 10.8
25/12:00am 17.1 15.9 11.6 70 3.0 SSW 9 11 5 6 1013.4 1013.1 10.8
 
Date/Time
EDT
Tmp

°C
App
Tmp
°C
Dew
Point
°C
Rel
Hum
%
Delta-T

°C
Wind Press
QNH
hPa
Press
MSL
hPa
Rain
since
9 am
mm
Dir
 
Spd
km/h
Gust
km/h
Spd
kts
Gust
kts
24/11:30pm 18.1 15.4 13.0 72 2.9 SW 19 24 10 13 1013.3 1013.0 10.8
24/11:00pm 18.8 20.8 18.8 100 0.0 SW 6 9 3 5 1013.2 1012.9 10.8
24/10:30pm 18.9 22.0 18.7 99 0.1 CALM 0 0 0 0 1012.9 1012.6 10.8
24/10:00pm 19.1 22.3 18.9 99 0.1 CALM 0 0 0 0 1012.5 1012.2 10.8
24/09:30pm 19.6 22.7 19.4 99 0.1 SW 2 4 1 2 1012.4 1012.1 10.8
24/09:00pm 19.7 22.8 19.5 99 0.1 SSE 2 4 1 2 1012.2 1011.9 10.8
24/08:30pm 19.5 22.1 19.2 98 0.2 SSE 4 6 2 3 1012.1 1011.8 10.8
24/08:00pm 20.0 23.2 19.8 99 0.1 SE 2 6 1 3 1011.5 1011.2 10.8
24/07:30pm 19.8 22.5 19.5 98 0.2 SE 4 6 2 3 1011.0 1010.7 10.8
24/07:00pm 20.1 22.6 19.8 98 0.2 SE 6 7 3 4 1010.5 1010.2 10.8
24/06:30pm 20.3 22.2 19.8 97 0.3 S 9 15 5 8 1010.0 1009.7 10.6
24/06:00pm 21.1 23.4 20.6 97 0.3 S 9 15 5 8 1009.6 1009.3 10.4
24/05:30pm 21.6 24.7 21.4 99 0.1 ESE 7 11 4 6 1009.1 1008.8 10.4
24/05:00pm 21.6 25.3 21.4 99 0.1 ESE 4 4 2 2 1009.6 1009.3 10.4
24/04:30pm 21.6 25.0 21.6 100 0.0 ENE 6 11 3 6 1009.3 1009.0 10.0
24/04:00pm 21.1 24.0 21.1 100 0.0 ENE 7 9 4 5 1009.5 1009.2 10.0
24/03:30pm 21.1 23.6 21.1 100 0.0 E 9 13 5 7 1009.7 1009.4 9.4
24/03:00pm 20.9 23.1 20.4 97 0.3 ESE 9 15 5 8 1010.5 1010.2 7.2
24/02:30pm 21.2 23.8 20.0 93 0.8 SE 6 7 3 4 1010.7 1010.4 4.6
24/02:00pm 21.6 24.8 20.4 93 0.8 SSE 4 6 2 3 1010.9 1010.6 2.8
24/01:30pm 21.9 24.5 20.5 92 0.9 SSW 7 9 4 5 1011.1 1010.8 1.6

Latest Capital City Observations: Canberra | Sydney | Melbourne | Brisbane | Adelaide | Perth | Hobart | Darwin

Other Formats:

Comma delimited format used in spreadsheet applications
http://www.bom.gov.au/fwo/IDN60901/IDN60901.94752.axf

JavaScript Object Notation format (JSON) in row-major order
http://www.bom.gov.au/fwo/IDN60901/IDN60901.94752.json